| time (UTC) | temp F | wind direction | speed MPH | gust MPH | rain 1hr in | rain 24hr in | rain mn in | humidity % | barometer mb |
| 20260901130017 | 56 | 0.0 | 0.0 | 0.00 | 0.00 | 0.00 | 88 | 1009.3 | |
| 20260901123017 | 56 | 0.0 | 0.0 | 0.00 | 0.00 | 0.00 | 88 | 1009.3 | |
| 20260901120017 | 56 | 0.0 | 0.0 | 0.00 | 0.00 | 0.00 | 88 | 1009.1 | |
| 20260901113017 | 56 | 0.0 | 0.0 | 0.00 | 0.00 | 0.00 | 87 | 1008.9 | |
| 20260901110017 | 57 | 0.0 | 0.0 | 0.00 | 0.00 | 0.00 | 85 | 1008.8 | |
| 20260901103017 | 57 | 0.0 | 0.0 | 0.00 | 0.00 | 0.00 | 85 | 1008.8 | |
| 20260901100017 | 57 | 0.0 | 0.0 | 0.00 | 0.00 | 0.00 | 85 | 1008.7 | |
| 20260901093016 | 58 | 0.0 | 0.0 | 0.00 | 0.00 | 0.00 | 84 | 1008.4 | |
| 20260901090016 | 58 | 0.0 | 0.0 | 0.00 | 0.00 | 0.00 | 83 | 1008.3 | |
| 20260901083022 | 59 | 0.0 | 0.0 | 0.00 | 0.00 | 0.00 | 82 | 1008.2 | |
| 20260901080021 | 60 | 0.0 | 0.0 | 0.00 | 0.00 | 0.00 | 81 | 1008.2 | |
| 20260901073017 | 60 | 0.0 | 0.0 | 0.00 | 0.00 | 0.00 | 80 | 1008.2 | |
| 20260901070016 | 61 | 0.0 | 0.0 | 0.00 | 0.00 | 0.00 | 79 | 1008.3 | |
| 20260901063017 | 62 | 0.0 | 0.0 | 0.00 | 0.00 | 0.00 | 78 | 1008.3 | |
| 20260901060017 | 62 | 0.0 | 0.0 | 0.00 | 0.00 | 0.00 | 77 | 1008.3 | |
| 20260901053018 | 63 | 0.0 | 0.0 | 0.00 | 0.00 | 0.00 | 74 | 1008.5 | |
| 20260901050017 | 64 | 0.0 | 0.0 | 0.00 | 0.00 | 0.00 | 72 | 1008.6 | |
| 20260901043017 | 65 | 0.0 | 0.0 | 0.00 | 0.00 | 0.00 | 71 | 1008.6 | |
| 20260901040018 | 65 | 0.0 | 0.0 | 0.00 | 0.00 | 0.00 | 70 | 1008.5 | |
| 20260901033019 | 66 | 0.0 | 0.0 | 0.00 | 0.00 | 0.00 | 69 | 1008.1 | |
| 20260901030017 | 68 | 0.0 | 1.0 | 0.00 | 0.00 | 0.00 | 66 | 1007.8 | |
| 20260901023017 | 69 | 0.0 | 1.0 | 0.00 | 0.00 | 0.00 | 63 | 1007.9 | |
| 20260901020017 | 70 | 0.0 | 2.0 | 0.00 | 0.00 | 0.00 | 61 | 1008.0 | |
| 20260901013017 | 72 | 0.0 | 5.0 | 0.00 | 0.00 | 0.00 | 60 | 1008.0 | |
| 20260901010016 | 74 | 0.0 | 5.0 | 0.00 | 0.00 | 0.00 | 57 | 1008.0 | |
| 20260901003016 | 74 | 270 | 1.0 | 6.0 | 0.00 | 0.00 | 0.00 | 56 | 1008.1 |
| 20260901000016 | 74 | 0.0 | 4.0 | 0.00 | 0.00 | 0.00 | 55 | 1008.2 | |
| 20260831233016 | 74 | 270 | 1.0 | 5.0 | 0.00 | 0.00 | 0.00 | 56 | 1008.5 |
| 20260831230016 | 74 | 270 | 1.0 | 5.0 | 0.00 | 0.00 | 0.00 | 56 | 1008.9 |
| 20260831223016 | 74 | 270 | 1.0 | 5.0 | 0.00 | 0.00 | 0.00 | 57 | 1009.2 |
| 20260831220016 | 73 | 0.0 | 6.0 | 0.00 | 0.00 | 0.00 | 57 | 1009.4 | |
| 20260831213016 | 73 | 0.0 | 6.0 | 0.00 | 0.00 | 0.00 | 58 | 1009.8 | |
| 20260831210016 | 72 | 90 | 1.0 | 5.0 | 0.00 | 0.00 | 0.00 | 61 | 1010.2 |
| 20260831203016 | 70 | 90 | 1.0 | 6.0 | 0.00 | 0.00 | 0.00 | 62 | 1010.5 |
| 20260831200016 | 69 | 90 | 1.0 | 6.0 | 0.00 | 0.00 | 0.00 | 62 | 1011.1 |
| 20260831193016 | 68 | 90 | 1.0 | 5.0 | 0.00 | 0.00 | 0.00 | 67 | 1011.5 |
| 20260831190016 | 66 | 90 | 1.0 | 5.0 | 0.00 | 0.00 | 0.00 | 70 | 1012.0 |
| 20260831183016 | 66 | 90 | 1.0 | 6.0 | 0.00 | 0.00 | 0.00 | 71 | 1012.2 |
| 20260831180015 | 65 | 90 | 1.0 | 6.0 | 0.00 | 0.00 | 0.00 | 73 | 1012.6 |
| 20260831173016 | 63 | 90 | 1.0 | 5.0 | 0.00 | 0.00 | 0.00 | 76 | 1012.9 |
| 20260831170015 | 61 | 90 | 1.0 | 5.0 | 0.00 | 0.00 | 0.00 | 78 | 1013.0 |
| 20260831163017 | 61 | 90 | 1.0 | 6.0 | 0.00 | 0.00 | 0.00 | 80 | 1013.2 |
| 20260831160017 | 59 | 0.0 | 5.0 | 0.00 | 0.00 | 0.00 | 83 | 1013.4 | |
| 20260831153018 | 59 | 90 | 1.0 | 5.0 | 0.00 | 0.00 | 0.00 | 84 | 1013.8 |
| 20260831150015 | 58 | 90 | 1.0 | 4.0 | 0.00 | 0.00 | 0.00 | 86 | 1013.8 |
| 20260831143017 | 58 | 0.0 | 3.0 | 0.00 | 0.00 | 0.00 | 88 | 1013.6 | |
| 20260831140017 | 57 | 0.0 | 0.0 | 0.00 | 0.00 | 0.00 | 90 | 1013.7 | |
| 20260831133017 | 56 | 0.0 | 0.0 | 0.00 | 0.00 | 0.00 | 90 | 1013.5 |